createdAt,value
2023-02-27T00:00:15.194Z,1.20
2023-02-27T00:01:16.739Z,1.00
2023-02-27T00:02:18.289Z,1.10
2023-02-27T00:03:19.744Z,1.10
2023-02-27T00:04:21.520Z,1.20
2023-02-27T00:05:23.222Z,1.20
2023-02-27T00:06:24.807Z,1.20
2023-02-27T00:07:28.734Z,1.20
2023-02-27T00:08:30.217Z,1.10
2023-02-27T00:09:31.830Z,1.10
2023-02-27T00:10:33.435Z,1.00
2023-02-27T00:11:35.308Z,1.00
2023-02-27T00:12:40.119Z,1.10
2023-02-27T00:13:41.925Z,1.10
2023-02-27T00:14:43.294Z,1.00
2023-02-27T00:15:50.330Z,1.00
2023-02-27T00:16:51.957Z,1.10
2023-02-27T00:17:53.560Z,1.00
2023-02-27T00:18:57.018Z,1.10
2023-02-27T00:19:58.460Z,1.00
2023-02-27T00:21:00.083Z,1.10
2023-02-27T00:22:01.757Z,1.10
2023-02-27T00:23:05.074Z,1.10
2023-02-27T00:24:07.058Z,1.10
2023-02-27T00:25:09.418Z,1.00
2023-02-27T00:26:10.811Z,1.00
2023-02-27T00:27:12.382Z,1.00
2023-02-27T00:28:13.902Z,1.00
2023-02-27T00:29:15.449Z,1.10
2023-02-27T00:30:17.084Z,1.10
2023-02-27T00:31:19.209Z,1.20
2023-02-27T00:32:20.971Z,1.20
2023-02-27T00:33:22.673Z,1.20
2023-02-27T00:34:24.644Z,1.10
2023-02-27T00:35:27.941Z,1.00
2023-02-27T00:36:29.486Z,1.00
2023-02-27T00:37:32.551Z,1.00
2023-02-27T00:38:34.677Z,1.10
2023-02-27T00:39:36.369Z,1.20
2023-02-27T00:40:37.878Z,1.20
2023-02-27T00:41:40.136Z,1.20
2023-02-27T00:42:42.131Z,1.10
2023-02-27T00:43:43.960Z,1.10
2023-02-27T00:44:46.270Z,1.00
2023-02-27T00:45:49.348Z,1.10
2023-02-27T00:46:50.976Z,0.90
2023-02-27T00:47:52.698Z,0.90
2023-02-27T00:48:54.243Z,1.00
2023-02-27T00:49:55.783Z,1.00
2023-02-27T00:50:57.300Z,1.00
2023-02-27T00:51:59.190Z,1.00
2023-02-27T00:53:00.595Z,1.00
2023-02-27T00:54:02.078Z,1.00
2023-02-27T00:55:03.618Z,1.00
2023-02-27T00:56:05.332Z,1.10
2023-02-27T00:57:07.018Z,1.10
2023-02-27T00:58:08.446Z,1.10
2023-02-27T00:59:09.921Z,1.00
2023-02-27T01:00:12.545Z,0.90
2023-02-27T01:01:13.928Z,1.00
2023-02-27T01:02:15.933Z,1.00
2023-02-27T01:03:17.675Z,1.10
2023-02-27T01:04:19.256Z,1.10
2023-02-27T01:05:21.553Z,1.10
2023-02-27T01:06:22.989Z,1.10
2023-02-27T01:07:24.944Z,1.10
2023-02-27T01:08:26.481Z,1.10
2023-02-27T01:09:27.960Z,1.10
2023-02-27T01:10:29.956Z,1.10
2023-02-27T01:11:31.519Z,1.10
2023-02-27T01:12:34.723Z,1.10
2023-02-27T01:13:36.346Z,1.00
2023-02-27T01:14:37.833Z,1.00
2023-02-27T01:15:39.375Z,1.00
2023-02-27T01:16:41.064Z,1.00
2023-02-27T01:17:42.814Z,1.00
2023-02-27T01:18:44.537Z,0.90
2023-02-27T01:19:46.015Z,1.00
2023-02-27T01:20:52.587Z,1.00
2023-02-27T01:21:54.401Z,1.00
2023-02-27T01:22:56.111Z,1.00
2023-02-27T01:23:57.621Z,1.10
2023-02-27T01:24:59.696Z,1.10
2023-02-27T01:26:01.722Z,1.10
2023-02-27T01:27:03.225Z,1.00
2023-02-27T01:28:04.832Z,0.90
2023-02-27T01:29:06.621Z,0.90
2023-02-27T01:30:11.185Z,0.90
2023-02-27T01:31:13.280Z,0.90
2023-02-27T01:32:14.936Z,0.90
2023-02-27T01:33:16.438Z,0.90
2023-02-27T01:34:18.529Z,0.90
2023-02-27T01:35:19.956Z,1.00
2023-02-27T01:36:23.170Z,0.90
2023-02-27T01:37:24.813Z,0.90
2023-02-27T01:38:26.798Z,0.90
2023-02-27T01:39:29.295Z,0.90
2023-02-27T01:40:34.989Z,1.00
2023-02-27T01:41:36.823Z,1.00
2023-02-27T01:42:38.646Z,0.90
2023-02-27T01:44:03.752Z,0.90
2023-02-27T01:45:18.864Z,0.90
2023-02-27T01:46:20.431Z,1.00
2023-02-27T01:47:22.548Z,0.90
2023-02-27T01:48:36.513Z,0.90
2023-02-27T01:49:38.357Z,0.90
2023-02-27T01:51:03.749Z,0.90
2023-02-27T01:52:11.020Z,0.90
2023-02-27T01:53:14.582Z,1.00
2023-02-27T01:54:22.803Z,1.00
2023-02-27T01:55:26.093Z,1.00
2023-02-27T01:56:30.745Z,1.00
2023-02-27T01:57:32.781Z,0.90
2023-02-27T01:58:34.451Z,1.00
2023-02-27T01:59:40.197Z,0.90
2023-02-27T02:00:42.263Z,1.00
2023-02-27T02:01:44.391Z,1.00
2023-02-27T02:02:57.304Z,0.90
2023-02-27T02:04:07.731Z,0.90
2023-02-27T02:05:09.920Z,0.90
2023-02-27T02:06:12.400Z,0.90
2023-02-27T02:07:17.554Z,1.00
2023-02-27T02:08:20.688Z,0.90
2023-02-27T02:09:23.908Z,0.90
2023-02-27T02:10:27.461Z,0.90
2023-02-27T02:11:30.426Z,0.90
2023-02-27T02:12:38.195Z,0.90
2023-02-27T02:13:40.924Z,0.90
2023-02-27T02:14:46.023Z,1.00
2023-02-27T02:16:29.199Z,1.00
2023-02-27T02:18:03.480Z,0.90
2023-02-27T02:19:29.569Z,0.90
2023-02-27T02:20:48.590Z,0.90
2023-02-27T02:22:37.449Z,0.90
2023-02-27T02:24:15.854Z,0.80
2023-02-27T02:25:47.532Z,0.80
2023-02-27T02:26:56.446Z,0.70
2023-02-27T02:28:25.933Z,0.60
2023-02-27T02:29:48.301Z,0.70
2023-02-27T02:30:52.599Z,0.80
2023-02-27T02:32:09.522Z,0.70
2023-02-27T02:33:43.693Z,0.70
2023-02-27T02:35:40.822Z,0.70
2023-02-27T02:37:12.764Z,0.70
2023-02-27T02:38:44.989Z,0.60
2023-02-27T02:39:52.539Z,0.70
2023-02-27T02:41:29.144Z,0.80
2023-02-27T02:42:36.671Z,0.70
2023-02-27T02:43:49.687Z,0.70
2023-02-27T02:45:10.747Z,0.70
2023-02-27T02:46:23.164Z,0.80
2023-02-27T02:47:33.652Z,0.70
2023-02-27T02:48:53.623Z,0.60
2023-02-27T02:50:02.669Z,0.60
2023-02-27T02:51:20.160Z,0.70
2023-02-27T02:52:36.334Z,0.70
2023-02-27T02:54:01.092Z,0.70
2023-02-27T02:55:23.646Z,0.70
2023-02-27T02:56:50.038Z,0.70
2023-02-27T02:58:12.802Z,0.60
2023-02-27T02:59:36.377Z,0.70
2023-02-27T03:00:46.051Z,0.60
2023-02-27T03:02:10.143Z,0.60
2023-02-27T03:03:22.393Z,0.60
2023-02-27T03:04:40.021Z,0.60
2023-02-27T03:05:48.431Z,0.60
2023-02-27T03:07:02.789Z,0.60
2023-02-27T03:08:09.505Z,0.60
2023-02-27T03:09:38.509Z,0.50
2023-02-27T03:10:47.930Z,0.50
2023-02-27T03:11:52.164Z,0.60
2023-02-27T03:13:00.873Z,0.60
2023-02-27T03:14:11.935Z,0.60
2023-02-27T03:15:21.554Z,0.60
2023-02-27T03:16:35.636Z,0.60
2023-02-27T03:17:50.145Z,0.60
2023-02-27T03:19:04.234Z,0.60
2023-02-27T03:20:12.660Z,0.60
2023-02-27T03:21:21.267Z,0.60
2023-02-27T03:22:30.996Z,0.60
2023-02-27T03:23:42.141Z,0.60
2023-02-27T03:24:51.695Z,0.60
2023-02-27T03:25:58.078Z,0.60
2023-02-27T03:27:03.002Z,0.60
2023-02-27T03:28:10.975Z,0.60
2023-02-27T03:29:19.412Z,0.60
2023-02-27T03:30:30.466Z,0.60
2023-02-27T03:31:41.137Z,0.60
2023-02-27T03:33:10.057Z,0.60
2023-02-27T03:34:38.402Z,0.60
2023-02-27T03:35:57.689Z,0.70
2023-02-27T03:37:18.753Z,0.60
2023-02-27T03:38:25.424Z,0.60
2023-02-27T03:39:40.987Z,0.70
2023-02-27T03:40:48.891Z,0.60
2023-02-27T03:42:35.303Z,0.60
2023-02-27T03:43:55.624Z,0.70
2023-02-27T03:45:13.416Z,0.60
2023-02-27T03:46:18.773Z,0.60
2023-02-27T03:47:20.658Z,0.60
2023-02-27T03:48:22.673Z,0.60
2023-02-27T03:49:24.226Z,0.60
2023-02-27T03:50:25.839Z,0.50
2023-02-27T03:51:28.746Z,0.50
2023-02-27T03:52:31.258Z,0.60
2023-02-27T03:53:57.613Z,0.60
2023-02-27T03:55:11.040Z,0.60
2023-02-27T03:56:15.949Z,0.70
2023-02-27T03:57:17.645Z,0.70
2023-02-27T03:58:19.876Z,0.60
2023-02-27T03:59:23.020Z,0.70
2023-02-27T04:00:27.487Z,0.70
2023-02-27T04:01:29.638Z,0.70
2023-02-27T04:02:33.666Z,0.70
2023-02-27T04:03:43.786Z,0.80
2023-02-27T04:04:48.450Z,0.80
2023-02-27T04:05:50.837Z,0.70
2023-02-27T04:07:20.231Z,0.70
2023-02-27T04:08:24.832Z,0.70
2023-02-27T04:09:31.897Z,0.70
2023-02-27T04:11:09.564Z,0.70
2023-02-27T04:12:36.212Z,0.70
2023-02-27T04:13:49.222Z,0.70
2023-02-27T04:15:16.598Z,0.70
2023-02-27T04:16:32.796Z,0.60
2023-02-27T04:17:44.283Z,0.70
2023-02-27T04:19:14.918Z,0.70
2023-02-27T04:20:35.237Z,0.70
2023-02-27T04:22:04.593Z,0.70
2023-02-27T04:23:34.090Z,0.70
2023-02-27T04:24:56.652Z,0.60
2023-02-27T04:26:26.635Z,0.70
2023-02-27T04:27:55.964Z,0.70
2023-02-27T04:29:03.047Z,0.60
2023-02-27T04:30:29.532Z,0.50
2023-02-27T04:31:53.024Z,0.50
2023-02-27T04:32:57.610Z,0.50
2023-02-27T04:34:10.308Z,0.50
2023-02-27T04:35:25.041Z,0.40
2023-02-27T04:36:42.333Z,0.40
2023-02-27T04:37:55.846Z,0.50
2023-02-27T04:39:08.857Z,0.40
2023-02-27T04:40:23.768Z,0.40
2023-02-27T04:41:30.536Z,0.50
2023-02-27T04:42:35.772Z,0.50
2023-02-27T04:43:41.308Z,0.50
2023-02-27T04:44:44.160Z,0.50
2023-02-27T04:45:47.821Z,0.50
2023-02-27T04:46:51.919Z,0.50
2023-02-27T04:47:59.145Z,0.50
2023-02-27T04:49:04.183Z,0.50
2023-02-27T04:50:14.321Z,0.50
2023-02-27T04:51:24.860Z,0.50
2023-02-27T04:52:34.361Z,0.50
2023-02-27T04:54:08.904Z,0.60
2023-02-27T04:55:23.172Z,0.70
2023-02-27T04:56:35.939Z,0.70
2023-02-27T04:57:51.422Z,0.60
2023-02-27T04:59:05.244Z,0.60
2023-02-27T05:00:11.977Z,0.50
2023-02-27T05:01:26.218Z,0.50
2023-02-27T05:02:57.868Z,0.50
2023-02-27T05:04:00.680Z,0.50
2023-02-27T05:05:07.893Z,0.50
2023-02-27T05:06:11.330Z,0.50
2023-02-27T05:07:18.846Z,0.50
2023-02-27T05:08:23.208Z,0.60
2023-02-27T05:09:35.126Z,0.60
2023-02-27T05:10:59.497Z,0.60
2023-02-27T05:12:06.097Z,0.60
2023-02-27T05:13:16.727Z,0.60
2023-02-27T05:14:51.640Z,0.60
2023-02-27T05:16:01.957Z,0.50
2023-02-27T05:17:11.733Z,0.60
2023-02-27T05:18:17.388Z,0.50
2023-02-27T05:19:20.801Z,0.50
2023-02-27T05:20:29.547Z,0.50
2023-02-27T05:21:50.162Z,0.50
2023-02-27T05:23:41.249Z,0.50
2023-02-27T05:25:08.805Z,0.40
2023-02-27T05:26:17.317Z,0.50
2023-02-27T05:27:48.535Z,0.50
2023-02-27T05:28:58.933Z,0.50
2023-02-27T05:30:23.549Z,0.50
2023-02-27T05:31:50.195Z,0.40
2023-02-27T05:32:57.589Z,0.50
2023-02-27T05:34:12.276Z,0.50
2023-02-27T05:35:52.522Z,0.50
2023-02-27T05:36:59.501Z,0.50
2023-02-27T05:38:22.368Z,0.50
2023-02-27T05:39:28.029Z,0.50
2023-02-27T05:40:35.522Z,0.50
2023-02-27T05:41:43.213Z,0.60
2023-02-27T05:42:52.832Z,0.50
2023-02-27T05:43:59.713Z,0.50
2023-02-27T05:45:08.410Z,0.60
2023-02-27T05:46:14.468Z,0.60
2023-02-27T05:47:20.297Z,0.60
2023-02-27T05:48:27.698Z,0.50
2023-02-27T05:49:43.896Z,0.50
2023-02-27T05:50:48.243Z,0.40
2023-02-27T05:51:53.212Z,0.30
2023-02-27T05:52:58.417Z,0.40
2023-02-27T05:54:10.817Z,0.40
2023-02-27T05:55:22.140Z,0.40
2023-02-27T05:56:29.842Z,0.40
2023-02-27T05:57:41.222Z,0.40
2023-02-27T05:58:47.884Z,0.50
2023-02-27T06:00:18.044Z,0.50
2023-02-27T06:01:19.637Z,0.50
2023-02-27T06:02:21.813Z,0.50
2023-02-27T06:03:23.783Z,0.60
2023-02-27T06:04:25.344Z,0.60
2023-02-27T06:05:27.924Z,0.60
2023-02-27T06:06:31.283Z,0.60
2023-02-27T06:07:34.602Z,0.60
2023-02-27T06:08:36.604Z,0.60
2023-02-27T06:09:38.335Z,0.60
2023-02-27T06:10:39.813Z,0.60
2023-02-27T06:11:41.499Z,0.60
2023-02-27T06:12:42.932Z,0.60
2023-02-27T06:13:44.701Z,0.60
2023-02-27T06:14:46.251Z,0.70
2023-02-27T06:15:48.266Z,0.70
2023-02-27T06:16:49.720Z,0.80
2023-02-27T06:17:51.523Z,0.80
2023-02-27T06:18:53.049Z,0.80
2023-02-27T06:19:54.496Z,0.80
2023-02-27T06:20:56.257Z,0.80
2023-02-27T06:21:57.829Z,0.80
2023-02-27T06:22:59.627Z,0.70
2023-02-27T06:24:01.109Z,0.80
2023-02-27T06:25:04.204Z,0.80
2023-02-27T06:26:05.751Z,0.70
2023-02-27T06:27:07.192Z,0.70
2023-02-27T06:28:09.209Z,0.70
2023-02-27T06:29:11.021Z,0.80
2023-02-27T06:30:13.623Z,0.70
2023-02-27T06:31:15.134Z,0.80
2023-02-27T06:32:17.863Z,0.80
2023-02-27T06:33:19.302Z,0.80
2023-02-27T06:34:20.701Z,0.80
2023-02-27T06:35:22.874Z,0.80
2023-02-27T06:36:25.096Z,0.80
2023-02-27T06:37:26.749Z,0.80
2023-02-27T06:38:28.381Z,0.80
2023-02-27T06:39:29.838Z,0.80
2023-02-27T06:40:31.503Z,0.80
2023-02-27T06:41:33.037Z,0.80
2023-02-27T06:42:34.624Z,0.80
2023-02-27T06:43:37.118Z,0.80
2023-02-27T06:44:38.805Z,0.70
2023-02-27T06:45:40.284Z,0.70
2023-02-27T06:46:41.719Z,0.70
2023-02-27T06:47:44.093Z,0.80
2023-02-27T06:48:45.755Z,0.80
2023-02-27T06:49:47.317Z,0.80
2023-02-27T06:50:53.714Z,0.90
2023-02-27T06:51:55.235Z,0.80
2023-02-27T06:52:56.637Z,0.90
2023-02-27T06:53:58.212Z,0.90
2023-02-27T06:54:59.924Z,0.90
2023-02-27T06:56:01.673Z,1.00
2023-02-27T06:57:03.206Z,0.90
2023-02-27T06:58:04.980Z,0.90
2023-02-27T06:59:06.467Z,0.90
2023-02-27T07:00:09.965Z,0.80
2023-02-27T07:01:12.196Z,0.90
2023-02-27T07:02:15.818Z,0.90
2023-02-27T07:03:17.312Z,0.90
2023-02-27T07:04:19.348Z,0.90
2023-02-27T07:05:20.778Z,1.00
2023-02-27T07:07:32.955Z,1.00
2023-02-27T07:07:43.970Z,1.00
2023-02-27T07:09:01.254Z,1.00
2023-02-27T07:10:13.017Z,1.00
2023-02-27T07:11:14.507Z,1.00
2023-02-27T07:12:16.833Z,1.00
2023-02-27T07:13:19.601Z,0.90
2023-02-27T07:14:21.870Z,0.90
2023-02-27T07:15:23.796Z,0.90
2023-02-27T07:16:25.462Z,0.90
2023-02-27T07:17:27.190Z,0.90
2023-02-27T07:18:28.703Z,0.90
2023-02-27T07:19:31.353Z,0.90
2023-02-27T07:20:33.049Z,0.90
2023-02-27T07:21:34.758Z,0.90
2023-02-27T07:22:37.030Z,1.00
2023-02-27T07:23:38.552Z,1.00
2023-02-27T07:24:40.233Z,1.00
2023-02-27T07:25:41.707Z,1.00
2023-02-27T07:26:43.266Z,1.00
2023-02-27T07:27:46.094Z,1.00
2023-02-27T07:28:47.825Z,1.00
2023-02-27T07:29:49.424Z,1.10
2023-02-27T07:30:54.612Z,1.10
2023-02-27T07:31:58.501Z,1.10
2023-02-27T07:33:01.752Z,1.00
2023-02-27T07:34:03.253Z,1.10
2023-02-27T07:35:05.014Z,1.10
2023-02-27T07:36:06.874Z,1.10
2023-02-27T07:37:08.389Z,1.00
2023-02-27T07:38:09.799Z,1.00
2023-02-27T07:39:12.818Z,1.00
2023-02-27T07:40:15.037Z,1.00
2023-02-27T07:41:29.643Z,1.10
2023-02-27T07:42:34.427Z,1.00
2023-02-27T07:43:35.936Z,1.00
2023-02-27T07:44:37.532Z,1.10
2023-02-27T07:45:39.160Z,1.10
2023-02-27T07:46:40.741Z,1.10
2023-02-27T07:47:42.331Z,1.10
2023-02-27T07:48:43.985Z,1.20
2023-02-27T07:49:45.398Z,1.20
2023-02-27T07:50:46.874Z,1.10
2023-02-27T07:51:48.333Z,1.10
2023-02-27T07:52:51.443Z,1.20
2023-02-27T07:53:52.945Z,1.20
2023-02-27T07:54:54.574Z,1.20
2023-02-27T07:55:55.952Z,1.10
2023-02-27T07:56:57.726Z,1.20
2023-02-27T07:57:59.157Z,1.20
2023-02-27T07:59:00.917Z,1.20
2023-02-27T08:00:04.537Z,1.20
2023-02-27T08:01:13.664Z,1.30
2023-02-27T08:02:15.534Z,1.20
2023-02-27T08:03:17.034Z,1.10
2023-02-27T08:04:18.572Z,1.20
2023-02-27T08:05:20.862Z,1.20
2023-02-27T08:06:23.556Z,1.30
2023-02-27T08:07:25.466Z,1.30
2023-02-27T08:08:26.935Z,1.30
2023-02-27T08:09:28.740Z,1.30
2023-02-27T08:10:31.346Z,1.20
2023-02-27T08:11:32.868Z,1.10
2023-02-27T08:12:34.938Z,1.10
2023-02-27T08:14:57.855Z,1.20
2023-02-27T08:15:59.400Z,1.20
2023-02-27T08:17:01.206Z,1.30
2023-02-27T08:18:02.907Z,1.20
2023-02-27T08:19:04.358Z,1.30
2023-02-27T08:20:07.663Z,1.30
2023-02-27T08:21:09.142Z,1.40
2023-02-27T08:22:11.928Z,1.50
2023-02-27T08:23:13.861Z,1.50
2023-02-27T08:24:15.336Z,1.50
2023-02-27T08:25:17.723Z,1.60
2023-02-27T08:26:19.406Z,1.60
2023-02-27T08:27:20.808Z,1.70
2023-02-27T08:28:22.598Z,1.70
2023-02-27T08:29:24.170Z,1.70
2023-02-27T08:30:25.820Z,1.70
2023-02-27T08:31:27.607Z,1.70
2023-02-27T08:32:29.138Z,1.70
2023-02-27T08:33:30.768Z,1.70
2023-02-27T08:34:32.246Z,1.70
2023-02-27T08:35:33.923Z,1.70
2023-02-27T08:36:35.674Z,1.80
2023-02-27T08:37:37.840Z,1.70
2023-02-27T08:38:40.047Z,1.80
2023-02-27T08:39:41.581Z,1.80
2023-02-27T08:40:43.696Z,1.70
2023-02-27T08:41:45.408Z,1.60
2023-02-27T08:42:46.826Z,1.80
2023-02-27T08:43:48.675Z,1.90
2023-02-27T08:44:50.536Z,1.90
2023-02-27T08:45:53.251Z,2.00
2023-02-27T08:46:54.648Z,1.90
2023-02-27T08:47:56.158Z,2.10
2023-02-27T08:48:57.688Z,2.10
2023-02-27T08:49:59.194Z,2.10
2023-02-27T08:51:00.808Z,2.10
2023-02-27T08:52:03.961Z,2.10
2023-02-27T08:53:05.365Z,2.00
2023-02-27T08:54:07.016Z,2.10
2023-02-27T08:55:09.774Z,1.90
2023-02-27T08:56:11.615Z,1.90
2023-02-27T08:57:13.084Z,1.70
2023-02-27T08:58:15.291Z,1.80
2023-02-27T08:59:17.952Z,1.90
2023-02-27T09:00:19.962Z,1.90
2023-02-27T09:01:21.851Z,2.00
2023-02-27T09:02:26.369Z,2.00
2023-02-27T09:03:29.014Z,2.00
2023-02-27T09:04:30.507Z,2.10
2023-02-27T09:05:35.231Z,2.20
2023-02-27T09:06:37.495Z,2.20
2023-02-27T09:07:39.243Z,2.20
2023-02-27T09:08:40.851Z,2.20
2023-02-27T09:09:42.304Z,2.20
2023-02-27T09:10:43.964Z,2.30
2023-02-27T09:11:46.272Z,2.20
2023-02-27T09:12:49.535Z,2.30
2023-02-27T09:13:52.799Z,2.30
2023-02-27T09:14:54.839Z,2.30
2023-02-27T09:15:56.418Z,2.30
2023-02-27T09:16:58.472Z,2.30
2023-02-27T09:18:03.128Z,2.40
2023-02-27T09:19:05.398Z,2.50
2023-02-27T09:20:09.352Z,2.30
2023-02-27T09:21:10.876Z,2.30
2023-02-27T09:22:12.621Z,2.30
2023-02-27T09:23:14.138Z,2.20
2023-02-27T09:24:20.270Z,2.30
2023-02-27T09:25:24.138Z,2.50
2023-02-27T09:26:40.771Z,2.50
2023-02-27T09:27:45.687Z,2.50
2023-02-27T09:28:47.184Z,2.40
2023-02-27T09:29:49.330Z,2.40
2023-02-27T09:30:51.105Z,2.40
2023-02-27T09:31:53.084Z,2.40
2023-02-27T09:32:54.608Z,2.50
2023-02-27T09:33:57.357Z,2.60
2023-02-27T09:34:58.871Z,2.70
2023-02-27T09:36:00.356Z,2.80
2023-02-27T09:37:02.355Z,2.90
2023-02-27T09:38:04.236Z,2.90
2023-02-27T09:39:05.912Z,3.00
2023-02-27T09:40:11.873Z,3.00
2023-02-27T09:41:44.704Z,3.00
2023-02-27T09:42:48.598Z,3.10
2023-02-27T09:43:51.645Z,3.30
2023-02-27T09:44:57.704Z,3.10
2023-02-27T09:46:02.311Z,3.10
2023-02-27T09:47:13.023Z,3.00
2023-02-27T09:48:32.383Z,3.00
2023-02-27T09:49:48.175Z,3.10
2023-02-27T09:50:52.469Z,3.10
2023-02-27T09:51:54.002Z,3.10
2023-02-27T09:52:55.544Z,3.10
2023-02-27T09:54:02.609Z,3.20
2023-02-27T09:55:15.272Z,3.20
2023-02-27T09:56:21.249Z,3.00
2023-02-27T09:57:46.573Z,3.00
2023-02-27T09:59:22.207Z,3.00
2023-02-27T10:00:36.277Z,3.10
2023-02-27T10:01:48.262Z,3.10
2023-02-27T10:03:04.877Z,3.00
2023-02-27T10:04:12.186Z,3.00
2023-02-27T10:05:39.560Z,3.10
2023-02-27T10:06:48.815Z,3.20
2023-02-27T10:08:18.008Z,3.30
2023-02-27T10:09:34.359Z,3.40
2023-02-27T10:10:40.450Z,3.40
2023-02-27T10:12:07.496Z,3.40
2023-02-27T10:13:29.994Z,3.60
2023-02-27T10:14:45.541Z,3.70
2023-02-27T10:15:52.695Z,3.50
2023-02-27T10:16:56.456Z,3.50
2023-02-27T10:18:20.134Z,3.50
2023-02-27T10:19:31.148Z,3.60
2023-02-27T10:20:36.770Z,3.50
2023-02-27T10:21:41.417Z,3.50
2023-02-27T10:22:46.032Z,3.50
2023-02-27T10:23:54.017Z,3.50
2023-02-27T10:25:30.357Z,3.50
2023-02-27T10:26:39.574Z,3.60
2023-02-27T10:27:43.666Z,3.50
2023-02-27T10:28:45.688Z,3.40
2023-02-27T10:29:48.159Z,3.40
2023-02-27T10:30:52.487Z,3.50
2023-02-27T10:32:00.175Z,3.60
2023-02-27T10:33:33.924Z,3.60
2023-02-27T10:34:39.642Z,3.60
2023-02-27T10:35:44.400Z,3.60
2023-02-27T10:36:47.315Z,3.60
2023-02-27T10:37:52.849Z,3.60
2023-02-27T10:38:59.609Z,3.50
2023-02-27T10:40:04.724Z,3.60
2023-02-27T10:41:10.416Z,3.40
2023-02-27T10:42:14.687Z,3.40
2023-02-27T10:43:19.403Z,3.30
2023-02-27T10:44:21.307Z,3.40
2023-02-27T10:45:22.895Z,3.50
2023-02-27T10:46:38.137Z,3.50
2023-02-27T10:47:39.783Z,3.70
2023-02-27T10:48:41.526Z,3.70
2023-02-27T10:49:44.208Z,3.70
2023-02-27T10:50:51.889Z,3.80
2023-02-27T10:52:17.889Z,3.80
2023-02-27T10:53:23.332Z,3.70
2023-02-27T10:54:25.600Z,3.80
2023-02-27T10:55:35.760Z,3.80
2023-02-27T10:56:38.313Z,3.70
2023-02-27T10:57:43.237Z,3.50
2023-02-27T10:58:45.418Z,3.40
2023-02-27T11:00:12.353Z,3.40
2023-02-27T11:01:13.782Z,3.50
2023-02-27T11:02:37.089Z,3.50
2023-02-27T11:03:41.823Z,3.50
2023-02-27T11:04:55.050Z,3.70
2023-02-27T11:06:00.767Z,3.80
2023-02-27T11:07:05.821Z,3.70
2023-02-27T11:08:24.429Z,3.70
2023-02-27T11:09:35.156Z,3.60
2023-02-27T11:10:36.618Z,3.60
2023-02-27T11:11:38.237Z,3.60
2023-02-27T11:12:40.961Z,3.50
2023-02-27T11:13:45.111Z,3.40
2023-02-27T11:15:01.386Z,3.40
2023-02-27T11:16:05.197Z,3.50
2023-02-27T11:17:20.569Z,3.40
2023-02-27T11:18:22.141Z,3.50
2023-02-27T11:19:26.513Z,3.50
2023-02-27T11:20:36.152Z,3.40
2023-02-27T11:21:37.597Z,3.50
2023-02-27T11:22:41.801Z,3.40
2023-02-27T11:23:55.068Z,3.40
2023-02-27T11:25:21.404Z,3.50
2023-02-27T11:26:25.350Z,3.50
2023-02-27T11:27:29.755Z,3.60
2023-02-27T11:28:31.545Z,3.70
2023-02-27T11:29:36.016Z,3.70
2023-02-27T11:30:38.104Z,3.80
2023-02-27T11:31:40.210Z,3.90
2023-02-27T11:32:44.715Z,3.80
2023-02-27T11:33:56.091Z,3.90
2023-02-27T11:34:57.605Z,3.90
2023-02-27T11:35:59.946Z,4.00
2023-02-27T11:37:22.475Z,4.00
2023-02-27T11:38:29.195Z,4.00
2023-02-27T11:39:38.145Z,4.00
2023-02-27T11:40:50.674Z,3.90
2023-02-27T11:41:53.286Z,3.70
2023-02-27T11:43:04.967Z,3.80
2023-02-27T11:44:07.231Z,3.90
2023-02-27T11:46:05.195Z,3.90
2023-02-27T11:46:51.214Z,4.10
2023-02-27T11:47:58.712Z,4.10
2023-02-27T11:49:39.944Z,4.30
2023-02-27T11:51:06.866Z,4.30
2023-02-27T11:52:33.384Z,4.20
2023-02-27T11:54:01.173Z,4.20
2023-02-27T11:55:05.886Z,4.40
2023-02-27T11:56:15.113Z,4.50
2023-02-27T11:57:31.420Z,4.50
2023-02-27T11:58:42.897Z,4.40
2023-02-27T11:59:50.626Z,4.30
2023-02-27T12:00:58.427Z,4.20
2023-02-27T12:02:29.318Z,4.30
2023-02-27T12:03:55.366Z,4.40
2023-02-27T12:05:09.725Z,4.50
2023-02-27T12:06:19.194Z,4.50
2023-02-27T12:07:54.170Z,4.50
2023-02-27T12:09:02.743Z,4.40
2023-02-27T12:10:19.055Z,4.40
2023-02-27T12:11:30.009Z,4.50
2023-02-27T12:12:40.471Z,4.60
2023-02-27T12:13:47.025Z,4.60
2023-02-27T12:15:37.112Z,4.60
2023-02-27T12:16:44.972Z,4.70
2023-02-27T12:17:56.946Z,4.50
2023-02-27T12:19:07.282Z,4.40
2023-02-27T12:20:34.255Z,4.50
2023-02-27T12:21:49.591Z,4.60
2023-02-27T12:22:53.767Z,4.70
2023-02-27T12:24:01.196Z,4.60
2023-02-27T12:25:10.615Z,4.60
2023-02-27T12:26:38.297Z,4.60
2023-02-27T12:27:54.146Z,4.60
2023-02-27T12:29:18.312Z,4.60
2023-02-27T12:30:26.357Z,4.70
2023-02-27T12:31:35.334Z,4.70
2023-02-27T12:32:49.149Z,4.70
2023-02-27T12:34:15.872Z,4.80
2023-02-27T12:35:22.317Z,4.60
2023-02-27T12:36:24.155Z,4.60
2023-02-27T12:37:28.255Z,4.60
2023-02-27T12:38:30.178Z,4.70
2023-02-27T12:39:33.214Z,4.70
2023-02-27T12:40:46.722Z,4.80
2023-02-27T12:42:12.794Z,4.30
2023-02-27T12:43:17.000Z,4.40
2023-02-27T12:44:24.422Z,4.30
2023-02-27T12:45:44.737Z,4.30
2023-02-27T12:47:10.336Z,4.50
2023-02-27T12:48:38.192Z,4.60
2023-02-27T12:49:59.147Z,4.70
2023-02-27T12:51:26.433Z,4.80
2023-02-27T12:52:42.793Z,4.80
2023-02-27T12:54:14.445Z,4.80
2023-02-27T12:55:26.026Z,4.80
2023-02-27T12:56:47.490Z,4.90
2023-02-27T12:58:12.034Z,4.90
2023-02-27T12:59:33.381Z,5.10
2023-02-27T13:00:59.712Z,5.10
2023-02-27T13:02:09.725Z,5.20
2023-02-27T13:03:18.152Z,5.20
2023-02-27T13:04:25.096Z,4.90
2023-02-27T13:05:46.254Z,5.00
2023-02-27T13:07:00.642Z,5.00
2023-02-27T13:08:23.206Z,4.90
2023-02-27T13:09:48.420Z,4.80
2023-02-27T13:11:06.593Z,4.80
2023-02-27T13:12:20.522Z,4.90
2023-02-27T13:13:43.209Z,4.70
2023-02-27T13:15:01.197Z,4.50
2023-02-27T13:16:10.835Z,4.60
2023-02-27T13:17:15.347Z,4.60
2023-02-27T13:18:31.936Z,4.50
2023-02-27T13:20:02.561Z,4.60
2023-02-27T13:21:14.986Z,4.60
2023-02-27T13:22:28.292Z,4.60
2023-02-27T13:23:55.749Z,4.40
2023-02-27T13:25:01.840Z,4.30
2023-02-27T13:26:25.001Z,4.30
2023-02-27T13:27:39.019Z,4.40
2023-02-27T13:28:41.161Z,4.30
2023-02-27T13:29:52.478Z,4.30
2023-02-27T13:31:05.887Z,4.30
2023-02-27T13:32:14.476Z,4.30
2023-02-27T13:33:38.296Z,4.40
2023-02-27T13:34:55.430Z,4.20
2023-02-27T13:36:24.258Z,4.20
2023-02-27T13:37:50.975Z,4.20
2023-02-27T13:38:55.743Z,4.30
2023-02-27T13:39:59.448Z,4.20
2023-02-27T13:41:29.245Z,4.30
2023-02-27T13:42:32.473Z,4.20
2023-02-27T13:43:51.432Z,4.20
2023-02-27T13:44:56.532Z,4.20
2023-02-27T13:46:21.050Z,4.20
2023-02-27T13:47:31.332Z,4.20
2023-02-27T13:48:48.078Z,4.30
2023-02-27T13:49:49.573Z,4.10
2023-02-27T13:50:52.586Z,4.10
2023-02-27T13:51:56.884Z,4.10
2023-02-27T13:53:09.781Z,4.20
2023-02-27T13:54:14.652Z,4.10
2023-02-27T13:55:25.133Z,4.10
2023-02-27T13:56:27.939Z,4.10
2023-02-27T13:57:35.256Z,4.10
2023-02-27T13:58:44.145Z,4.10
2023-02-27T13:59:53.633Z,4.10
2023-02-27T14:01:00.747Z,4.10
2023-02-27T14:02:05.054Z,4.20
2023-02-27T14:03:09.183Z,4.30
2023-02-27T14:04:18.885Z,4.30
2023-02-27T14:05:28.038Z,4.40
2023-02-27T14:06:30.022Z,4.20
2023-02-27T14:08:15.184Z,4.40
2023-02-27T14:09:21.839Z,4.40
2023-02-27T14:10:26.844Z,4.30
2023-02-27T14:11:39.598Z,4.30
2023-02-27T14:12:45.819Z,4.20
2023-02-27T14:13:50.960Z,4.10
2023-02-27T14:14:53.044Z,3.90
2023-02-27T14:15:57.178Z,4.00
2023-02-27T14:17:00.050Z,3.90
2023-02-27T14:18:15.979Z,3.90
2023-02-27T14:19:24.568Z,3.90
2023-02-27T14:20:30.511Z,4.00
2023-02-27T14:21:58.928Z,3.90
2023-02-27T14:23:15.484Z,4.00
2023-02-27T14:24:27.230Z,4.10
2023-02-27T14:25:35.530Z,4.00
2023-02-27T14:26:40.046Z,4.00
2023-02-27T14:27:44.620Z,4.00
2023-02-27T14:28:51.771Z,4.00
2023-02-27T14:29:56.791Z,4.00
2023-02-27T14:31:12.890Z,4.10
2023-02-27T14:32:21.820Z,3.90
2023-02-27T14:33:39.591Z,4.00
2023-02-27T14:34:41.905Z,3.90
2023-02-27T14:35:53.537Z,3.90
2023-02-27T14:36:58.356Z,4.00
2023-02-27T14:38:07.968Z,4.10
2023-02-27T14:39:21.453Z,3.90
2023-02-27T14:40:38.021Z,4.00
2023-02-27T14:41:52.472Z,4.00
2023-02-27T14:43:09.615Z,4.00
2023-02-27T14:44:20.286Z,4.00
2023-02-27T14:45:24.476Z,3.90
2023-02-27T14:46:36.807Z,4.00
2023-02-27T14:47:39.304Z,3.90
2023-02-27T14:48:40.890Z,3.80
2023-02-27T14:49:45.607Z,3.80
2023-02-27T14:50:53.843Z,3.70
2023-02-27T14:51:56.848Z,3.70
2023-02-27T14:52:58.282Z,3.60
2023-02-27T14:54:03.197Z,3.60
2023-02-27T14:55:19.224Z,3.60
2023-02-27T14:56:20.717Z,3.60
2023-02-27T14:57:29.074Z,3.50
2023-02-27T14:58:30.619Z,3.60
2023-02-27T14:59:33.946Z,3.70
2023-02-27T15:00:42.317Z,3.70
2023-02-27T15:01:43.936Z,3.90
2023-02-27T15:02:45.472Z,3.90
2023-02-27T15:03:46.931Z,3.80
2023-02-27T15:04:53.829Z,3.80
2023-02-27T15:05:59.487Z,3.80
2023-02-27T15:07:01.135Z,3.80
2023-02-27T15:08:03.655Z,3.80
2023-02-27T15:09:06.794Z,3.80
2023-02-27T15:10:09.865Z,3.60
2023-02-27T15:11:16.202Z,3.70
2023-02-27T15:12:22.696Z,3.70
2023-02-27T15:13:39.085Z,3.70